Time;durP1;ratioP1;P1;durP2;ratioP2;P2;SDS_P1;SDS_P2;PMS_P1;PMS_P2;Temp;Humidity;BMP_temperature;BMP_pressure;BME280_temperature;BME280_humidity;BME280_pressure;Samples;Min_cycle;Max_cycle;Signal;HPM_P1;HPM_P2
2021/01/14 00:03:06;;;;;;;49.10;21.73;;;;;;;-0.42;86.43;97184.77;489732;1150;104515;-40
2021/01/14 00:13:12;;;;;;;31.57;17.20;;;;;;;-0.50;85.76;97182.33;489873;1149;104569;-40
2021/01/14 00:23:17;;;;;;;33.97;18.40;;;;;;;-0.58;85.77;97175.52;489790;1149;104534;-41
2021/01/14 00:33:22;;;;;;;34.73;15.43;;;;;;;-0.53;86.42;97162.75;489623;1150;104585;-41
2021/01/14 00:43:31;;;;;;;34.30;15.83;;;;;;;-0.52;86.43;97164.35;489527;1150;104559;-40
2021/01/14 01:03:55;;;;;;;24.07;13.33;;;;;;;-0.51;86.32;97147.78;489846;1149;104532;-39
2021/01/14 01:14:01;;;;;;;22.97;12.67;;;;;;;-0.49;86.47;97144.98;489624;1150;104524;-42
2021/01/14 01:24:06;;;;;;;25.50;13.70;;;;;;;-0.50;86.52;97146.78;489772;1149;104582;-40
2021/01/14 01:34:10;;;;;;;25.65;15.00;;;;;;;-0.49;86.37;97137.19;489750;1148;104897;-40
2021/01/14 01:44:16;;;;;;;24.27;14.13;;;;;;;-0.54;86.63;97126.60;489760;1149;104468;-41
2021/01/14 01:54:22;;;;;;;21.77;13.63;;;;;;;-0.52;86.31;97134.99;489730;1149;104552;-42
2021/01/14 02:04:26;;;;;;;31.50;16.10;;;;;;;-0.52;86.34;97133.20;489727;1149;104530;-41
2021/01/14 02:14:32;;;;;;;27.65;15.10;;;;;;;-0.49;86.39;97129.41;491177;1108;104572;-40
2021/01/14 02:24:39;;;;;;;36.70;20.00;;;;;;;-0.46;86.70;97129.04;489638;1148;104522;-40
2021/01/14 02:45:03;;;;;;;30.73;18.53;;;;;;;-0.54;86.54;97139.58;489825;1148;104444;-40
2021/01/14 02:55:08;;;;;;;33.25;16.70;;;;;;;-0.54;86.60;97139.58;489721;1148;104530;-42
2021/01/14 03:05:12;;;;;;;44.87;21.40;;;;;;;-0.50;86.50;97135.59;489642;1148;104627;-40
2021/01/14 03:15:16;;;;;;;32.20;16.13;;;;;;;-0.57;86.63;97134.78;489960;1148;104509;-39
2021/01/14 03:25:21;;;;;;;27.80;14.00;;;;;;;-0.58;85.96;97140.98;489763;1148;104624;-41
2021/01/14 03:35:26;;;;;;;18.93;11.03;;;;;;;-0.61;86.03;97147.36;489857;1148;104639;-40
2021/01/14 03:45:31;;;;;;;19.67;10.13;;;;;;;-0.62;86.05;97141.38;489806;1146;104563;-40
2021/01/14 03:55:36;;;;;;;15.67;8.80;;;;;;;-0.64;86.63;97150.34;489868;1148;104521;-41
2021/01/14 04:05:41;;;;;;;14.17;7.83;;;;;;;-0.63;86.67;97152.75;489719;1148;104528;-41
2021/01/14 04:15:45;;;;;;;12.75;7.15;;;;;;;-0.72;86.10;97166.88;489774;1148;104847;-40
2021/01/14 04:25:51;;;;;;;20.30;10.40;;;;;;;-0.75;86.23;97169.86;489752;1148;104456;-41
2021/01/14 04:35:56;;;;;;;21.27;11.60;;;;;;;-0.84;86.15;97180.61;489847;1148;104544;-41
2021/01/14 04:46:04;;;;;;;37.00;15.27;;;;;;;-0.85;86.89;97184.20;489722;1148;104521;-40
2021/01/14 05:06:36;;;;;;;25.13;11.40;;;;;;;-0.90;86.64;97197.76;489744;1148;104481;-41
2021/01/14 05:16:42;;;;;;;16.40;9.27;;;;;;;-0.93;86.55;97216.30;489595;1148;104556;-40
2021/01/14 05:26:47;;;;;;;11.77;6.70;;;;;;;-0.95;87.23;97228.64;489753;1148;104502;-39
2021/01/14 05:37:03;;;;;;;13.37;9.07;;;;;;;-0.97;86.71;97241.80;489735;1148;104639;-43
2021/01/14 05:47:20;;;;;;;23.33;12.20;;;;;;;-1.01;87.08;97244.98;489978;1148;104532;-38
2021/01/14 05:57:28;;;;;;;27.65;16.10;;;;;;;-1.03;87.20;97259.94;489731;1147;104509;-40
2021/01/14 06:07:41;;;;;;;14.73;8.63;;;;;;;-1.06;87.47;97271.49;489736;1148;104524;-40
2021/01/14 06:17:46;;;;;;;20.67;10.10;;;;;;;-1.08;87.73;97294.23;489779;1148;104914;-38
2021/01/14 06:38:20;;;;;;;18.40;10.20;;;;;;;-1.04;88.16;97325.78;489872;1148;104537;-42
2021/01/14 06:48:34;;;;;;;21.53;11.33;;;;;;;-1.03;88.39;97348.14;489799;1148;104553;-39
2021/01/14 06:58:43;;;;;;;25.60;13.85;;;;;;;-1.02;87.82;97362.72;489675;1148;104469;-41
2021/01/14 07:08:54;;;;;;;27.25;15.15;;;;;;;-1.00;88.50;97377.10;489786;1148;104540;-42
2021/01/14 07:18:58;;;;;;;26.73;13.50;;;;;;;-0.97;88.12;97386.30;489793;1148;105085;-41
2021/01/14 07:29:04;;;;;;;39.37;17.97;;;;;;;-0.94;88.21;97404.12;489642;1148;104510;-40
2021/01/14 07:39:09;;;;;;;28.30;13.33;;;;;;;-0.89;88.14;97419.13;489782;1148;104962;-41
2021/01/14 07:49:26;;;;;;;32.13;17.17;;;;;;;-0.87;87.92;97437.90;489687;1148;104527;-40
2021/01/14 07:59:30;;;;;;;31.93;16.33;;;;;;;-0.89;88.75;97451.06;489843;1148;104933;-38
2021/01/14 08:09:40;;;;;;;34.27;17.90;;;;;;;-0.86;88.80;97465.45;489712;1148;104978;-41
2021/01/14 08:19:45;;;;;;;28.87;15.53;;;;;;;-0.75;88.46;97485.70;489672;1148;104531;-40
2021/01/14 08:29:55;;;;;;;23.17;13.27;;;;;;;-0.72;88.85;97506.91;489735;1148;104631;-42
2021/01/14 08:40:02;;;;;;;29.63;16.00;;;;;;;-0.65;88.75;97525.16;489792;1148;104594;-41
2021/01/14 08:50:08;;;;;;;28.17;14.97;;;;;;;-0.47;88.64;97533.32;489915;1148;104463;-41
2021/01/14 09:00:15;;;;;;;24.13;16.10;;;;;;;-0.28;88.62;97562.23;489614;1148;104607;-41
2021/01/14 09:10:20;;;;;;;29.20;16.90;;;;;;;-0.13;88.07;97575.95;489773;1148;105571;-42
2021/01/14 09:20:25;;;;;;;26.67;16.10;;;;;;;0.03;87.97;97603.48;489617;1147;104444;-42
2021/01/14 09:30:31;;;;;;;32.93;19.00;;;;;;;0.21;87.78;97622.00;489782;1148;104888;-39
2021/01/14 09:40:36;;;;;;;32.47;18.17;;;;;;;0.33;88.34;97637.91;490020;1148;104554;-42
2021/01/14 09:50:41;;;;;;;35.90;18.33;;;;;;;0.90;87.95;97653.27;489974;1148;104500;-40
2021/01/14 10:00:45;;;;;;;36.53;20.23;;;;;;;0.70;87.55;97665.36;489790;1148;104509;-41
2021/01/14 10:10:49;;;;;;;30.80;17.07;;;;;;;1.12;88.02;97680.02;490100;1148;104529;-42
2021/01/14 10:21:00;;;;;;;36.93;21.40;;;;;;;0.77;87.43;97702.66;489696;1148;104582;-40
2021/01/14 10:31:04;;;;;;;47.43;22.93;;;;;;;0.48;87.49;97725.25;489925;1148;104482;-42
2021/01/14 10:51:41;;;;;;;46.90;19.97;;;;;;;-0.10;87.71;97767.86;489793;1148;105012;-40
2021/01/14 11:01:46;;;;;;;38.13;18.43;;;;;;;-0.10;87.17;97784.26;489791;1148;104554;-41
2021/01/14 11:11:51;;;;;;;40.40;19.70;;;;;;;0.05;87.19;97791.23;489780;1148;104518;-41
2021/01/14 11:21:55;;;;;;;33.33;17.80;;;;;;;0.21;86.95;97809.18;489849;1148;104872;-41
2021/01/14 11:31:59;;;;;;;35.80;18.17;;;;;;;0.19;87.04;97808.56;489756;1148;104517;-41
2021/01/14 11:42:04;;;;;;;44.73;20.80;;;;;;;0.15;87.16;97815.13;489721;1148;104869;-42
2021/01/14 11:52:09;;;;;;;38.83;19.53;;;;;;;0.43;87.03;97818.62;489933;1148;104521;-41
2021/01/14 12:02:14;;;;;;;33.33;16.63;;;;;;;0.49;86.87;97828.30;489857;1148;104517;-40
2021/01/14 12:12:18;;;;;;;40.60;19.47;;;;;;;0.43;86.05;97847.22;489927;1146;104521;-40
2021/01/14 12:22:22;;;;;;;43.20;18.53;;;;;;;0.64;85.91;97851.64;489755;1148;104628;-40
2021/01/14 12:32:27;;;;;;;39.33;20.03;;;;;;;0.60;85.84;97868.62;489587;1148;104635;-40
2021/01/14 12:42:32;;;;;;;42.77;20.43;;;;;;;0.46;85.16;97888.47;489776;1148;104558;-39
2021/01/14 12:52:37;;;;;;;53.93;24.63;;;;;;;0.37;85.75;97893.97;489701;1148;104530;-40
2021/01/14 13:02:42;;;;;;;60.97;27.77;;;;;;;0.34;85.23;97904.74;489772;1148;104867;-40
2021/01/14 13:12:47;;;;;;;47.07;20.57;;;;;;;0.43;84.78;97914.04;489673;1148;104597;-41
2021/01/14 13:22:52;;;;;;;43.67;19.47;;;;;;;0.37;84.20;97927.78;489618;1148;104564;-40
2021/01/14 13:32:57;;;;;;;36.55;17.10;;;;;;;0.11;84.24;97936.05;489898;1148;104563;-40
2021/01/14 13:43:02;;;;;;;40.53;18.33;;;;;;;-0.20;83.75;97962.22;489713;1148;105196;-39
2021/01/14 13:53:07;;;;;;;43.57;19.00;;;;;;;-0.28;84.11;97977.86;489714;1148;104982;-40
2021/01/14 14:03:10;;;;;;;42.90;19.27;;;;;;;-0.41;83.90;97991.47;489646;1148;104585;-42
2021/01/14 14:13:15;;;;;;;37.95;16.65;;;;;;;-0.62;83.94;98016.30;489766;1148;104444;-42
2021/01/14 14:23:19;;;;;;;40.83;17.23;;;;;;;-0.85;83.28;98033.64;489685;1148;104886;-41
2021/01/14 14:33:24;;;;;;;38.00;18.03;;;;;;;-0.97;83.35;98037.59;489770;1148;104537;-40
2021/01/14 14:43:29;;;;;;;38.70;18.90;;;;;;;-1.06;84.30;98041.23;489582;1148;104883;-39
2021/01/14 14:53:35;;;;;;;67.00;29.50;;;;;;;-1.08;84.24;98054.37;489755;1148;104595;-41
2021/01/14 15:03:43;;;;;;;75.97;33.13;;;;;;;-1.15;84.26;98063.81;489895;1148;104630;-39
2021/01/14 15:13:50;;;;;;;72.07;34.60;;;;;;;-1.24;85.02;98068.21;489591;1148;104809;-41
2021/01/14 15:23:54;;;;;;;67.00;31.67;;;;;;;-1.23;85.19;98076.80;489919;1148;104572;-42
2021/01/14 15:33:59;;;;;;;52.50;22.15;;;;;;;-1.26;85.74;98084.92;489613;1148;104548;-40
2021/01/14 15:44:05;;;;;;;67.95;32.65;;;;;;;-1.26;85.84;98097.89;489851;1148;104871;-39
2021/01/14 15:54:12;;;;;;;70.40;31.00;;;;;;;-1.27;85.99;98104.06;489893;1148;104787;-40
2021/01/14 16:04:19;;;;;;;73.10;30.50;;;;;;;-1.33;85.71;98108.13;489857;1148;104559;-39
2021/01/14 16:14:25;;;;;;;89.93;37.97;;;;;;;-1.42;86.72;98121.27;489541;1148;104566;-41
2021/01/14 16:24:30;;;;;;;88.57;37.27;;;;;;;-1.48;86.33;98129.72;489683;1148;104521;-39
2021/01/14 16:34:35;;;;;;;83.57;36.47;;;;;;;-1.53;86.53;98138.00;489749;1148;104693;-41
2021/01/14 16:44:40;;;;;;;103.27;40.50;;;;;;;-1.57;86.34;98147.89;489874;1148;104981;-39
2021/01/14 16:54:45;;;;;;;104.17;36.70;;;;;;;-1.61;86.96;98144.02;489979;1148;104549;-42
2021/01/14 17:04:51;;;;;;;127.77;52.60;;;;;;;-1.59;87.68;98156.81;489832;1146;104524;-41
2021/01/14 17:14:55;;;;;;;82.87;36.70;;;;;;;-1.60;87.35;98168.16;489664;1148;104521;-41
2021/01/14 17:25:01;;;;;;;73.07;34.53;;;;;;;-1.60;87.37;98168.97;489828;1148;104866;-40
2021/01/14 17:35:08;;;;;;;79.23;33.37;;;;;;;-1.58;86.98;98179.98;489866;1148;104521;-43
2021/01/14 17:45:12;;;;;;;67.10;31.90;;;;;;;-1.56;87.57;98190.19;489844;1148;104477;-39
2021/01/14 17:55:18;;;;;;;67.80;30.00;;;;;;;-1.56;87.95;98201.37;489641;1148;104992;-40
2021/01/14 18:05:23;;;;;;;63.03;28.47;;;;;;;-1.55;87.67;98215.95;489879;1148;104549;-40
2021/01/14 18:15:28;;;;;;;62.90;28.27;;;;;;;-1.53;87.37;98225.34;489636;1148;105690;-40
2021/01/14 18:25:46;;;;;;;51.23;24.87;;;;;;;-1.50;87.44;98235.39;489879;1148;104503;-41
2021/01/14 18:35:51;;;;;;;47.73;21.27;;;;;;;-1.61;86.99;98239.13;489677;1148;104497;-42
2021/01/14 18:45:55;;;;;;;42.80;19.70;;;;;;;-1.75;87.08;98255.31;489758;1148;104534;-42
2021/01/14 18:56:00;;;;;;;32.70;14.23;;;;;;;-1.90;86.76;98242.16;489748;1148;104879;-41
2021/01/14 19:06:04;;;;;;;34.55;16.25;;;;;;;-2.04;86.68;98253.97;489563;1148;104625;-43
2021/01/14 19:16:10;;;;;;;36.40;19.10;;;;;;;-2.11;87.11;98252.19;489881;1148;104546;-41
2021/01/14 19:26:17;;;;;;;36.20;18.00;;;;;;;-2.17;87.07;98257.00;489830;1148;104905;-42
2021/01/14 19:36:26;;;;;;;34.70;16.40;;;;;;;-2.15;87.00;98272.39;489703;1148;104524;-39
2021/01/14 19:46:30;;;;;;;35.25;17.27;;;;;;;-2.18;86.93;98272.70;489683;1148;104503;-42
2021/01/14 19:56:37;;;;;;;42.17;17.13;;;;;;;-2.23;87.02;98288.72;489682;1148;105020;-44
2021/01/14 20:06:42;;;;;;;34.70;16.97;;;;;;;-2.29;86.76;98291.95;489739;1148;104444;-42
2021/01/14 20:27:08;;;;;;;39.20;18.23;;;;;;;-2.35;86.93;98310.70;489730;1148;104864;-41
2021/01/14 20:47:31;;;;;;;49.15;20.40;;;;;;;-2.38;86.77;98317.95;489452;1148;104570;-42
2021/01/14 20:57:36;;;;;;;46.07;22.63;;;;;;;-2.43;86.77;98320.20;489590;1148;104823;-42
2021/01/14 21:07:40;;;;;;;40.90;19.65;;;;;;;-2.49;86.50;98322.44;489608;1148;104524;-42
2021/01/14 21:17:44;;;;;;;38.90;21.07;;;;;;;-2.53;86.29;98335.86;489719;1148;104584;-40
2021/01/14 21:27:50;;;;;;;47.70;23.97;;;;;;;-2.59;86.07;98337.28;489866;1147;104464;-39
2021/01/14 21:37:55;;;;;;;52.37;21.83;;;;;;;-2.66;86.23;98353.56;489874;1148;104572;-41
2021/01/14 21:48:00;;;;;;;29.80;15.37;;;;;;;-2.74;85.84;98356.11;489882;1148;104947;-40
2021/01/14 21:58:05;;;;;;;44.77;18.43;;;;;;;-2.82;85.88;98362.05;489623;1148;104556;-42
2021/01/14 22:08:10;;;;;;;47.75;22.55;;;;;;;-2.91;85.17;98370.70;489934;1148;104867;-40
2021/01/14 22:18:16;;;;;;;40.80;18.70;;;;;;;-2.98;85.43;98377.44;489774;1148;104524;-39
2021/01/14 22:28:20;;;;;;;34.75;15.50;;;;;;;-3.02;85.25;98363.19;489745;1148;104563;-40
2021/01/14 22:38:25;;;;;;;32.00;16.77;;;;;;;-3.06;85.37;98379.98;489931;1148;104534;-39
2021/01/14 22:48:30;;;;;;;29.80;16.40;;;;;;;-3.14;85.07;98386.69;489740;1148;104521;-39
2021/01/14 22:58:35;;;;;;;31.80;17.10;;;;;;;-3.18;85.44;98394.89;489711;1148;104863;-39
2021/01/14 23:08:41;;;;;;;38.30;18.07;;;;;;;-3.25;84.68;98392.09;489707;1148;104962;-40
2021/01/14 23:18:47;;;;;;;36.80;18.37;;;;;;;-3.29;85.26;98393.36;489900;1148;104628;-40
2021/01/14 23:28:52;;;;;;;33.77;16.73;;;;;;;-3.34;84.83;98389.56;489653;1148;104530;-40
2021/01/14 23:38:58;;;;;;;33.43;15.30;;;;;;;-3.43;84.65;98389.50;489841;1148;104520;-41
2021/01/14 23:49:03;;;;;;;28.13;12.87;;;;;;;-3.54;84.78;98391.50;489792;1148;104530;-40
2021/01/14 23:59:10;;;;;;;25.00;12.20;;;;;;;-3.66;84.59;98405.56;489754;1148;104556;-39
